Time;durP1;ratioP1;P1;durP2;ratioP2;P2;SDS_P1;SDS_P2;PMS_P1;PMS_P2;Temp;Humidity;BMP_temperature;BMP_pressure;BME280_temperature;BME280_humidity;BME280_pressure;Samples;Min_cycle;Max_cycle;Signal;HPM_P1;HPM_P2
2022/09/07 00:00:47;;;;;;;18.58;14.02;;;;;;;;;;5051981;28;20108;-62
2022/09/07 00:03:13;;;;;;;20.17;14.13;;;;;;;;;;5051971;28;20362;-63
2022/09/07 00:05:43;;;;;;;19.17;14.38;;;;;;;;;;5050607;28;20033;-63
2022/09/07 00:08:09;;;;;;;20.30;14.27;;;;;;;;;;5051651;28;20048;-62
2022/09/07 00:10:35;;;;;;;19.45;14.13;;;;;;;;;;5051926;28;20033;-63
2022/09/07 00:13:02;;;;;;;19.70;14.05;;;;;;;;;;5051620;28;20029;-62
2022/09/07 00:15:28;;;;;;;21.23;14.60;;;;;;;;;;5051784;28;20028;-62
2022/09/07 00:17:54;;;;;;;19.50;14.88;;;;;;;;;;5050367;28;20021;-62
2022/09/07 00:20:20;;;;;;;20.95;15.43;;;;;;;;;;5051696;28;20112;-62
2022/09/07 00:22:46;;;;;;;21.02;15.23;;;;;;;;;;5051532;28;20041;-62
2022/09/07 00:25:12;;;;;;;22.67;15.75;;;;;;;;;;5051664;28;20060;-62
2022/09/07 00:27:38;;;;;;;20.77;15.55;;;;;;;;;;5051254;28;20100;-62
2022/09/07 00:30:05;;;;;;;18.98;15.02;;;;;;;;;;5051578;28;20029;-62
2022/09/07 00:32:31;;;;;;;23.55;15.63;;;;;;;;;;5051382;28;20079;-62
2022/09/07 00:34:57;;;;;;;19.95;14.52;;;;;;;;;;5051196;28;20025;-62
2022/09/07 00:37:23;;;;;;;20.25;15.02;;;;;;;;;;5051247;28;20028;-64
2022/09/07 00:39:49;;;;;;;19.83;14.52;;;;;;;;;;5050286;28;20029;-63
2022/09/07 00:42:16;;;;;;;22.00;14.48;;;;;;;;;;5051228;28;20033;-63
2022/09/07 00:44:42;;;;;;;25.17;15.10;;;;;;;;;;5050076;28;20032;-64
2022/09/07 00:47:17;;;;;;;19.92;14.43;;;;;;;;;;5051225;28;20545;-62
2022/09/07 00:49:46;;;;;;;21.45;15.98;;;;;;;;;;5050035;28;20405;-62
2022/09/07 00:52:13;;;;;;;33.05;29.95;;;;;;;;;;5049822;28;20055;-61
2022/09/07 00:54:41;;;;;;;29.45;26.80;;;;;;;;;;5051432;28;20089;-62
2022/09/07 00:57:08;;;;;;;28.48;26.08;;;;;;;;;;5051554;28;20045;-60
2022/09/07 00:59:36;;;;;;;25.95;23.45;;;;;;;;;;5051002;28;20036;-63
2022/09/07 01:02:03;;;;;;;27.75;25.23;;;;;;;;;;5051739;28;20028;-62
2022/09/07 01:04:29;;;;;;;30.48;27.63;;;;;;;;;;5054742;28;20025;-62
2022/09/07 01:06:56;;;;;;;27.85;25.23;;;;;;;;;;5054805;28;20020;-62
2022/09/07 01:09:23;;;;;;;23.08;20.77;;;;;;;;;;5054365;28;20560;-62
2022/09/07 01:11:50;;;;;;;21.90;19.70;;;;;;;;;;5053372;28;20044;-59
2022/09/07 01:14:22;;;;;;;20.05;18.05;;;;;;;;;;5054658;28;20043;-62
2022/09/07 01:16:48;;;;;;;20.90;17.35;;;;;;;;;;5054525;28;20082;-62
2022/09/07 01:19:23;;;;;;;19.17;17.05;;;;;;;;;;5054270;28;20373;-63
2022/09/07 01:22:08;;;;;;;21.52;16.88;;;;;;;;;;5054318;28;20029;-61
2022/09/07 01:24:40;;;;;;;20.67;18.17;;;;;;;;;;5054346;28;20033;-61
2022/09/07 01:27:29;;;;;;;21.60;19.50;;;;;;;;;;5053106;28;20071;-62
2022/09/07 01:30:04;;;;;;;22.48;20.33;;;;;;;;;;5025893;28;20029;-58
2022/09/07 01:32:30;;;;;;;23.50;21.20;;;;;;;;;;5054295;28;20024;-62
2022/09/07 01:34:56;;;;;;;23.63;21.30;;;;;;;;;;5054173;28;20014;-62
2022/09/07 01:37:28;;;;;;;25.23;22.17;;;;;;;;;;5054103;28;20367;-62
2022/09/07 01:40:04;;;;;;;23.90;21.70;;;;;;;;;;5054490;28;20033;-63
2022/09/07 01:42:40;;;;;;;23.95;21.85;;;;;;;;;;5054016;28;20021;-62
2022/09/07 01:45:10;;;;;;;23.27;20.92;;;;;;;;;;5054199;28;20028;-60
2022/09/07 01:47:42;;;;;;;22.88;20.58;;;;;;;;;;5053664;28;20037;-63
2022/09/07 01:50:27;;;;;;;22.30;20.02;;;;;;;;;;5053831;28;20024;-60
2022/09/07 01:52:53;;;;;;;22.40;20.00;;;;;;;;;;5053827;28;20029;-60
2022/09/07 01:55:23;;;;;;;22.38;20.25;;;;;;;;;;5053976;28;20113;-60
2022/09/07 01:57:55;;;;;;;22.65;20.55;;;;;;;;;;5053710;28;20112;-60
2022/09/07 02:00:22;;;;;;;22.85;20.60;;;;;;;;;;5053999;28;20094;-60
2022/09/07 02:03:03;;;;;;;23.83;20.85;;;;;;;;;;5053880;28;20021;-60
2022/09/07 02:05:40;;;;;;;22.63;20.58;;;;;;;;;;5054019;28;20032;-60
2022/09/07 02:08:10;;;;;;;22.42;20.23;;;;;;;;;;5053398;28;20053;-61
2022/09/07 02:10:39;;;;;;;22.98;20.83;;;;;;;;;;5053628;28;20024;-61
2022/09/07 02:13:18;;;;;;;24.40;22.10;;;;;;;;;;5053391;28;20032;-60
2022/09/07 02:15:47;;;;;;;23.08;20.83;;;;;;;;;;5053913;28;20048;-60
2022/09/07 02:18:13;;;;;;;23.35;20.90;;;;;;;;;;5053486;28;20482;-60
2022/09/07 02:20:41;;;;;;;24.05;21.55;;;;;;;;;;5053515;28;20041;-61
2022/09/07 02:23:28;;;;;;;23.08;20.88;;;;;;;;;;5053647;28;20028;-61
2022/09/07 02:25:57;;;;;;;23.52;21.23;;;;;;;;;;5052449;28;20033;-61
2022/09/07 02:28:27;;;;;;;23.48;21.27;;;;;;;;;;5052328;28;20393;-62
2022/09/07 02:30:53;;;;;;;23.17;21.08;;;;;;;;;;5053728;28;20036;-61
2022/09/07 02:33:19;;;;;;;24.45;22.15;;;;;;;;;;5053487;28;20021;-60
2022/09/07 02:35:46;;;;;;;24.08;21.73;;;;;;;;;;5053080;28;20061;-61
2022/09/07 02:38:12;;;;;;;25.42;23.13;;;;;;;;;;5052842;28;20024;-61
2022/09/07 02:40:38;;;;;;;27.42;24.65;;;;;;;;;;5051885;28;20017;-60
2022/09/07 02:43:06;;;;;;;27.55;25.00;;;;;;;;;;5052857;28;20555;-61
2022/09/07 02:45:56;;;;;;;27.85;25.42;;;;;;;;;;5052890;28;20115;-61
2022/09/07 02:48:41;;;;;;;28.27;25.55;;;;;;;;;;5014838;28;20036;-61
2022/09/07 02:51:10;;;;;;;28.58;26.15;;;;;;;;;;5052888;28;20025;-61
2022/09/07 02:53:57;;;;;;;28.40;25.90;;;;;;;;;;5051223;28;20078;-61
2022/09/07 02:56:42;;;;;;;29.02;26.35;;;;;;;;;;5051671;28;20078;-61
2022/09/07 02:59:10;;;;;;;27.50;25.10;;;;;;;;;;5052367;28;20029;-61
2022/09/07 03:01:43;;;;;;;27.85;25.33;;;;;;;;;;5052604;28;20497;-61
2022/09/07 03:04:14;;;;;;;28.08;25.55;;;;;;;;;;5052583;28;20041;-61
2022/09/07 03:06:43;;;;;;;27.75;25.13;;;;;;;;;;5052400;28;20197;-61
2022/09/07 03:09:16;;;;;;;28.33;25.83;;;;;;;;;;5051123;28;20025;-61
2022/09/07 03:11:42;;;;;;;31.48;28.58;;;;;;;;;;5052169;28;20025;-61
2022/09/07 03:14:11;;;;;;;28.65;26.17;;;;;;;;;;5052089;28;20025;-61
2022/09/07 03:16:37;;;;;;;28.15;25.73;;;;;;;;;;5052308;28;20036;-61
2022/09/07 03:19:04;;;;;;;27.42;24.92;;;;;;;;;;5052099;28;20393;-60
2022/09/07 03:21:30;;;;;;;26.88;24.45;;;;;;;;;;5052222;28;20024;-61
2022/09/07 03:23:56;;;;;;;26.30;24.10;;;;;;;;;;5051980;28;20119;-61
2022/09/07 03:26:26;;;;;;;27.20;24.80;;;;;;;;;;5050580;28;20060;-61
2022/09/07 03:28:52;;;;;;;27.15;24.65;;;;;;;;;;5051703;28;20025;-61
2022/09/07 03:31:19;;;;;;;26.05;23.75;;;;;;;;;;5052054;28;20032;-62
2022/09/07 03:33:45;;;;;;;27.35;25.00;;;;;;;;;;5051877;28;20582;-61
2022/09/07 03:36:11;;;;;;;28.17;25.52;;;;;;;;;;5052014;28;20025;-62
2022/09/07 03:38:37;;;;;;;28.65;26.25;;;;;;;;;;5051732;28;20025;-61
2022/09/07 03:41:04;;;;;;;27.42;25.02;;;;;;;;;;5051850;28;20017;-60
2022/09/07 03:43:30;;;;;;;27.05;24.83;;;;;;;;;;5050152;28;20413;-56
2022/09/07 03:46:01;;;;;;;27.88;25.30;;;;;;;;;;5050571;28;20029;-61
2022/09/07 03:48:30;;;;;;;27.35;24.88;;;;;;;;;;5050335;28;20021;-62
2022/09/07 03:50:59;;;;;;;28.88;26.27;;;;;;;;;;5050441;28;20025;-63
2022/09/07 03:53:25;;;;;;;28.98;26.15;;;;;;;;;;5050131;28;20067;-60
2022/09/07 03:56:11;;;;;;;29.65;26.70;;;;;;;;;;5050442;28;20021;-61
2022/09/07 03:58:37;;;;;;;28.77;26.20;;;;;;;;;;5050325;28;20060;-61
2022/09/07 04:01:14;;;;;;;29.70;27.15;;;;;;;;;;5051625;28;20521;-60
2022/09/07 04:03:41;;;;;;;29.80;27.30;;;;;;;;;;5051497;28;20025;-60
2022/09/07 04:06:07;;;;;;;30.10;27.35;;;;;;;;;;5050665;28;20490;-60
2022/09/07 04:08:34;;;;;;;28.90;26.27;;;;;;;;;;5051505;28;20036;-60
2022/09/07 04:11:00;;;;;;;29.63;27.00;;;;;;;;;;5051812;28;20036;-61
2022/09/07 04:13:27;;;;;;;29.25;26.48;;;;;;;;;;5051225;28;20104;-60
2022/09/07 04:15:53;;;;;;;29.85;27.02;;;;;;;;;;5050219;28;20091;-61
2022/09/07 04:18:20;;;;;;;29.40;26.85;;;;;;;;;;5051261;28;20026;-60
2022/09/07 04:20:46;;;;;;;30.17;27.55;;;;;;;;;;5051540;28;20029;-61
2022/09/07 04:23:12;;;;;;;29.55;27.05;;;;;;;;;;5049991;28;20039;-61
2022/09/07 04:25:38;;;;;;;30.65;28.05;;;;;;;;;;5051440;28;20025;-61
2022/09/07 04:28:04;;;;;;;31.33;28.80;;;;;;;;;;5049700;28;20021;-60
2022/09/07 04:30:33;;;;;;;31.98;29.17;;;;;;;;;;5051226;28;20390;-61
2022/09/07 04:32:59;;;;;;;31.33;28.63;;;;;;;;;;5051130;28;20025;-60
2022/09/07 04:35:25;;;;;;;32.03;29.48;;;;;;;;;;5051906;28;20029;-60
2022/09/07 04:37:51;;;;;;;31.90;29.30;;;;;;;;;;5051985;28;20035;-60
2022/09/07 04:40:17;;;;;;;31.08;28.58;;;;;;;;;;5055239;28;20022;-61
2022/09/07 04:42:43;;;;;;;32.17;29.25;;;;;;;;;;5054764;28;20109;-61
2022/09/07 04:45:10;;;;;;;32.53;29.33;;;;;;;;;;5055013;28;20113;-61
2022/09/07 04:47:36;;;;;;;31.08;28.58;;;;;;;;;;5052870;28;20387;-61
2022/09/07 04:50:02;;;;;;;31.60;29.10;;;;;;;;;;5054878;28;20028;-61
2022/09/07 04:52:28;;;;;;;31.05;28.35;;;;;;;;;;5054614;28;20029;-63
2022/09/07 04:54:54;;;;;;;32.38;29.60;;;;;;;;;;5054668;28;20104;-61
2022/09/07 04:57:23;;;;;;;31.60;29.00;;;;;;;;;;5054630;28;20541;-61
2022/09/07 04:59:49;;;;;;;32.30;29.60;;;;;;;;;;5054826;28;20104;-62
2022/09/07 05:02:15;;;;;;;31.55;29.05;;;;;;;;;;5054523;28;20025;-62
2022/09/07 05:04:41;;;;;;;31.48;28.77;;;;;;;;;;5052102;28;20096;-62
2022/09/07 05:07:07;;;;;;;31.67;28.85;;;;;;;;;;5054159;28;20025;-62
2022/09/07 05:09:33;;;;;;;30.55;28.05;;;;;;;;;;5054201;28;20037;-61
2022/09/07 05:11:59;;;;;;;31.70;29.10;;;;;;;;;;5054056;28;20021;-62
2022/09/07 05:14:25;;;;;;;31.80;29.00;;;;;;;;;;5054309;28;20385;-63
2022/09/07 05:16:51;;;;;;;30.58;28.15;;;;;;;;;;5054059;28;20025;-63
2022/09/07 05:19:17;;;;;;;30.80;28.23;;;;;;;;;;5053784;28;20025;-62
2022/09/07 05:21:43;;;;;;;30.88;28.17;;;;;;;;;;5053860;28;20025;-62
2022/09/07 05:24:09;;;;;;;30.20;27.60;;;;;;;;;;5052889;28;20036;-62
2022/09/07 05:26:36;;;;;;;30.63;28.02;;;;;;;;;;5053966;28;20017;-62
2022/09/07 05:29:03;;;;;;;31.00;28.48;;;;;;;;;;5053644;28;20029;-62
2022/09/07 05:31:29;;;;;;;30.08;27.48;;;;;;;;;;5053807;28;20108;-62
2022/09/07 05:33:56;;;;;;;31.50;28.52;;;;;;;;;;5053598;28;20029;-60
2022/09/07 05:36:25;;;;;;;31.85;29.25;;;;;;;;;;5053753;28;20021;-58
2022/09/07 05:38:51;;;;;;;31.35;28.45;;;;;;;;;;5053493;28;20023;-59
2022/09/07 05:41:21;;;;;;;31.90;29.10;;;;;;;;;;5053515;28;20108;-58
2022/09/07 05:43:48;;;;;;;32.17;29.48;;;;;;;;;;5053433;28;20025;-54
2022/09/07 05:46:14;;;;;;;32.33;29.52;;;;;;;;;;5053598;28;20025;-56
2022/09/07 05:48:41;;;;;;;32.25;29.65;;;;;;;;;;5052921;28;20021;-59
2022/09/07 05:51:07;;;;;;;31.52;28.95;;;;;;;;;;5052086;28;20480;-59
2022/09/07 05:53:34;;;;;;;31.35;28.75;;;;;;;;;;5044517;22;20045;-56
2022/09/07 05:56:01;;;;;;;34.33;30.90;;;;;;;;;;5014145;28;20038;-54
2022/09/07 05:58:27;;;;;;;33.55;30.75;;;;;;;;;;5016047;28;20057;-54
2022/09/07 06:00:58;;;;;;;31.45;28.85;;;;;;;;;;5014014;28;20429;-55
2022/09/07 06:03:24;;;;;;;32.88;30.13;;;;;;;;;;5014021;28;20022;-54
2022/09/07 06:05:59;;;;;;;33.75;30.85;;;;;;;;;;5014215;28;20488;-56
2022/09/07 06:08:25;;;;;;;31.90;29.05;;;;;;;;;;5014073;28;20030;-63
2022/09/07 06:10:51;;;;;;;30.83;28.23;;;;;;;;;;5014365;28;20068;-60
2022/09/07 06:13:17;;;;;;;31.88;28.63;;;;;;;;;;5013600;28;20084;-61
2022/09/07 06:15:43;;;;;;;31.23;28.33;;;;;;;;;;5013762;28;20088;-60
2022/09/07 06:18:09;;;;;;;31.98;28.98;;;;;;;;;;5013786;28;20026;-60
2022/09/07 06:20:35;;;;;;;29.50;26.88;;;;;;;;;;5013023;28;20413;-60
2022/09/07 06:23:01;;;;;;;29.73;27.13;;;;;;;;;;5013448;28;20149;-60
2022/09/07 06:25:27;;;;;;;29.00;26.38;;;;;;;;;;5013892;28;20029;-60
2022/09/07 06:27:53;;;;;;;28.92;26.30;;;;;;;;;;5013610;28;20104;-60
2022/09/07 06:30:20;;;;;;;28.45;25.95;;;;;;;;;;5013724;28;20559;-60
2022/09/07 06:32:46;;;;;;;27.13;24.63;;;;;;;;;;5013345;28;20466;-60
2022/09/07 06:35:13;;;;;;;27.38;24.85;;;;;;;;;;5013413;28;20027;-60
2022/09/07 06:37:39;;;;;;;32.83;29.83;;;;;;;;;;5013241;28;20100;-61
2022/09/07 06:40:06;;;;;;;29.55;26.65;;;;;;;;;;5029960;28;20063;-61
2022/09/07 06:42:32;;;;;;;28.50;25.60;;;;;;;;;;5033188;28;20436;-60
2022/09/07 06:44:58;;;;;;;26.33;23.95;;;;;;;;;;5033043;28;20034;-61
2022/09/07 06:47:24;;;;;;;25.13;22.65;;;;;;;;;;5033045;28;20630;-61
2022/09/07 06:49:50;;;;;;;25.20;22.73;;;;;;;;;;5032754;28;20030;-60
2022/09/07 06:52:16;;;;;;;24.58;22.08;;;;;;;;;;5032711;28;20105;-61
2022/09/07 06:54:42;;;;;;;24.02;21.48;;;;;;;;;;5033031;28;20128;-61
2022/09/07 06:57:08;;;;;;;22.80;20.55;;;;;;;;;;5032463;28;20501;-58
2022/09/07 06:59:35;;;;;;;22.15;19.23;;;;;;;;;;5032060;28;20025;-60
2022/09/07 07:02:01;;;;;;;22.60;18.90;;;;;;;;;;5031369;28;20486;-60
2022/09/07 07:04:27;;;;;;;21.05;18.58;;;;;;;;;;5032858;28;20431;-60
2022/09/07 07:06:53;;;;;;;21.00;18.92;;;;;;;;;;5013040;28;20033;-59
2022/09/07 07:09:20;;;;;;;20.98;18.83;;;;;;;;;;5011904;28;20026;-60
2022/09/07 07:11:47;;;;;;;21.08;18.88;;;;;;;;;;5012979;28;20482;-60
2022/09/07 07:14:16;;;;;;;22.17;19.50;;;;;;;;;;5012657;28;20030;-60
2022/09/07 07:16:42;;;;;;;21.15;18.95;;;;;;;;;;5014192;28;20032;-60
2022/09/07 07:19:09;;;;;;;21.00;18.40;;;;;;;;;;5012572;28;20498;-60
2022/09/07 07:21:35;;;;;;;20.77;18.55;;;;;;;;;;5012816;28;20022;-59
2022/09/07 07:24:01;;;;;;;21.95;18.33;;;;;;;;;;5011602;28;20026;-59
2022/09/07 07:26:27;;;;;;;20.92;18.75;;;;;;;;;;5012651;28;20030;-60
2022/09/07 07:28:55;;;;;;;21.02;17.45;;;;;;;;;;5013346;28;20076;-59
2022/09/07 07:31:22;;;;;;;18.98;15.45;;;;;;;;;;5012512;28;20734;-59
2022/09/07 07:33:49;;;;;;;20.40;15.20;;;;;;;;;;5012483;28;20499;-59
2022/09/07 07:36:16;;;;;;;20.08;15.25;;;;;;;;;;5012592;28;20022;-59
2022/09/07 07:38:43;;;;;;;19.55;15.88;;;;;;;;;;5012567;28;20022;-59
2022/09/07 07:41:10;;;;;;;19.65;16.02;;;;;;;;;;5012590;28;20022;-58
2022/09/07 07:43:36;;;;;;;20.65;16.90;;;;;;;;;;5012146;28;20117;-59
2022/09/07 07:46:03;;;;;;;20.40;15.93;;;;;;;;;;5012176;28;20659;-59
2022/09/07 07:48:30;;;;;;;23.23;15.55;;;;;;;;;;5012344;28;20033;-60
2022/09/07 07:51:06;;;;;;;22.13;15.57;;;;;;;;;;5012607;28;20097;-60
2022/09/07 07:53:34;;;;;;;21.77;16.55;;;;;;;;;;5012231;28;20026;-60
2022/09/07 07:56:01;;;;;;;22.83;17.13;;;;;;;;;;5012345;28;20014;-60
2022/09/07 07:58:27;;;;;;;23.85;19.02;;;;;;;;;;5012307;28;20030;-60
2022/09/07 08:00:54;;;;;;;24.67;20.60;;;;;;;;;;5012436;28;20026;-60
2022/09/07 08:03:20;;;;;;;28.15;20.38;;;;;;;;;;5012629;28;20026;-59
2022/09/07 08:05:47;;;;;;;24.63;18.95;;;;;;;;;;5012382;28;20058;-60
2022/09/07 08:08:14;;;;;;;28.33;19.25;;;;;;;;;;5012237;28;20037;-60
2022/09/07 08:10:40;;;;;;;23.15;18.80;;;;;;;;;;5011147;28;20121;-60
2022/09/07 08:13:06;;;;;;;23.80;18.88;;;;;;;;;;5016471;28;20029;-59
2022/09/07 08:15:44;;;;;;;22.80;18.77;;;;;;;;;;5016630;28;20076;-60
2022/09/07 08:18:13;;;;;;;24.53;20.30;;;;;;;;;;5016044;28;20018;-60
2022/09/07 08:20:39;;;;;;;24.27;20.63;;;;;;;;;;5015618;28;20494;-58
2022/09/07 08:23:09;;;;;;;25.88;20.90;;;;;;;;;;5015980;28;20041;-58
2022/09/07 08:25:35;;;;;;;24.45;20.63;;;;;;;;;;5015746;28;20030;-59
2022/09/07 08:28:02;;;;;;;25.52;20.77;;;;;;;;;;5015530;28;20033;-59
2022/09/07 08:30:28;;;;;;;28.15;22.55;;;;;;;;;;5016026;28;20077;-57
2022/09/07 08:32:54;;;;;;;28.40;24.02;;;;;;;;;;5015563;28;20370;-57
2022/09/07 08:35:20;;;;;;;25.52;22.77;;;;;;;;;;5015626;28;20041;-55
2022/09/07 08:37:47;;;;;;;27.17;24.27;;;;;;;;;;5015100;28;20041;-59
2022/09/07 08:40:17;;;;;;;29.70;25.45;;;;;;;;;;5013687;28;20119;-56
2022/09/07 08:42:47;;;;;;;29.38;25.52;;;;;;;;;;5015107;28;20030;-57
2022/09/07 08:45:19;;;;;;;28.73;25.20;;;;;;;;;;5014109;28;20034;-56
2022/09/07 08:47:48;;;;;;;33.78;25.60;;;;;;;;;;5015812;28;20025;-56
2022/09/07 08:50:20;;;;;;;27.00;24.00;;;;;;;;;;5004819;28;20508;-56
2022/09/07 08:52:55;;;;;;;31.35;26.20;;;;;;;;;;5013796;28;20406;-55
2022/09/07 08:55:27;;;;;;;32.72;28.42;;;;;;;;;;5015430;28;20108;-56
2022/09/07 08:58:00;;;;;;;31.52;27.60;;;;;;;;;;5015039;28;20030;-58
2022/09/07 09:00:26;;;;;;;31.90;28.52;;;;;;;;;;5015408;28;20029;-58
2022/09/07 09:02:52;;;;;;;34.65;29.38;;;;;;;;;;5014679;28;20053;-54
2022/09/07 09:05:29;;;;;;;34.65;30.17;;;;;;;;;;5017985;28;20034;-56
2022/09/07 09:08:07;;;;;;;34.30;28.83;;;;;;;;;;5032202;28;20099;-57
2022/09/07 09:10:42;;;;;;;32.75;29.23;;;;;;;;;;5034794;28;20095;-58
2022/09/07 09:13:18;;;;;;;33.40;28.63;;;;;;;;;;5034455;28;20079;-55
2022/09/07 09:16:02;;;;;;;31.00;27.58;;;;;;;;;;5034573;28;20022;-58
2022/09/07 09:18:46;;;;;;;31.95;27.45;;;;;;;;;;5034571;28;20612;-57
2022/09/07 09:21:14;;;;;;;31.23;27.23;;;;;;;;;;5034664;28;20398;-58
2022/09/07 09:23:41;;;;;;;34.22;28.60;;;;;;;;;;5033707;28;20034;-57
2022/09/07 09:26:10;;;;;;;30.10;26.48;;;;;;;;;;5034854;28;20045;-56
2022/09/07 09:28:37;;;;;;;32.17;28.77;;;;;;;;;;5034217;28;20054;-59
2022/09/07 09:31:03;;;;;;;34.47;29.65;;;;;;;;;;5033432;28;20029;-59
2022/09/07 09:33:30;;;;;;;31.35;28.08;;;;;;;;;;5034596;28;20029;-57
2022/09/07 09:35:57;;;;;;;33.63;29.42;;;;;;;;;;5034408;28;20112;-59
2022/09/07 09:38:30;;;;;;;33.10;29.60;;;;;;;;;;5033726;28;20113;-58
2022/09/07 09:40:57;;;;;;;32.50;28.98;;;;;;;;;;5034079;28;20438;-59
2022/09/07 09:43:25;;;;;;;32.17;28.77;;;;;;;;;;5034003;28;20029;-58
2022/09/07 09:45:53;;;;;;;32.05;28.65;;;;;;;;;;5034269;28;20029;-59
2022/09/07 09:48:21;;;;;;;32.65;29.10;;;;;;;;;;5033981;28;20026;-56
2022/09/07 09:50:49;;;;;;;32.03;28.25;;;;;;;;;;5033719;28;20025;-55
2022/09/07 09:53:44;;;;;;;31.60;28.08;;;;;;;;;;5033724;28;20033;-60
2022/09/07 09:56:10;;;;;;;31.10;27.88;;;;;;;;;;5020607;28;20025;-57
2022/09/07 09:58:39;;;;;;;33.13;29.65;;;;;;;;;;5033462;28;20498;-59
2022/09/07 10:01:07;;;;;;;33.15;29.70;;;;;;;;;;5034537;28;20022;-60
2022/09/07 10:03:33;;;;;;;33.08;29.70;;;;;;;;;;5033914;28;20029;-60
2022/09/07 10:06:01;;;;;;;31.67;28.25;;;;;;;;;;5021524;28;20176;-58
2022/09/07 10:08:29;;;;;;;31.83;28.52;;;;;;;;;;5013509;28;20093;-60
2022/09/07 10:10:59;;;;;;;32.63;29.23;;;;;;;;;;5012335;28;20108;-57
2022/09/07 10:13:34;;;;;;;30.25;26.05;;;;;;;;;;5011872;28;20040;-59
2022/09/07 10:16:07;;;;;;;32.03;28.73;;;;;;;;;;5011833;28;20018;-60
2022/09/07 10:18:34;;;;;;;31.17;27.77;;;;;;;;;;5011781;28;20509;-55
2022/09/07 10:21:23;;;;;;;31.45;28.10;;;;;;;;;;5011853;28;20030;-58
2022/09/07 10:23:52;;;;;;;29.50;23.83;;;;;;;;;;5003572;28;20046;-60
2022/09/07 10:26:26;;;;;;;29.10;23.70;;;;;;;;;;5013397;28;20022;-58
2022/09/07 10:29:19;;;;;;;27.27;22.38;;;;;;;;;;5013099;28;20029;-60
2022/09/07 10:31:47;;;;;;;28.00;22.08;;;;;;;;;;4989949;28;20116;-60
2022/09/07 10:34:19;;;;;;;27.80;21.92;;;;;;;;;;5011316;28;20113;-59
2022/09/07 10:36:55;;;;;;;27.20;21.77;;;;;;;;;;5013087;28;20053;-60
2022/09/07 10:39:25;;;;;;;26.52;21.10;;;;;;;;;;5013281;28;20021;-59
2022/09/07 10:42:04;;;;;;;24.88;20.60;;;;;;;;;;5013285;28;20493;-59
2022/09/07 10:44:30;;;;;;;26.45;20.23;;;;;;;;;;5012986;28;20054;-58
2022/09/07 10:47:02;;;;;;;24.35;19.73;;;;;;;;;;5012250;28;20517;-59
2022/09/07 10:49:42;;;;;;;25.00;19.80;;;;;;;;;;5013194;28;20037;-60
2022/09/07 10:52:15;;;;;;;24.98;20.38;;;;;;;;;;5013005;28;20513;-57
2022/09/07 10:54:53;;;;;;;23.55;17.65;;;;;;;;;;5013248;28;20034;-59
2022/09/07 10:57:19;;;;;;;23.67;18.33;;;;;;;;;;5012693;28;20052;-59
2022/09/07 10:59:57;;;;;;;21.90;17.38;;;;;;;;;;5013029;28;20054;-60
2022/09/07 11:02:42;;;;;;;21.25;15.88;;;;;;;;;;5013038;28;20430;-59
2022/09/07 11:05:27;;;;;;;21.52;15.25;;;;;;;;;;5013834;28;20028;-59
2022/09/07 11:08:11;;;;;;;20.70;16.50;;;;;;;;;;5014716;28;20026;-59
2022/09/07 11:10:43;;;;;;;22.00;15.73;;;;;;;;;;5015333;28;20121;-56
2022/09/07 11:13:13;;;;;;;21.33;17.63;;;;;;;;;;5015782;28;20469;-57
2022/09/07 11:15:57;;;;;;;22.58;17.70;;;;;;;;;;5016274;28;20566;-56
2022/09/07 11:18:27;;;;;;;21.77;17.23;;;;;;;;;;5014586;28;20022;-55
2022/09/07 11:20:56;;;;;;;21.33;16.60;;;;;;;;;;5012399;28;20097;-55
2022/09/07 11:23:42;;;;;;;21.52;15.43;;;;;;;;;;5012826;28;20044;-55
2022/09/07 11:26:22;;;;;;;18.83;14.25;;;;;;;;;;5012313;28;20052;-57
2022/09/07 11:28:55;;;;;;;20.35;14.85;;;;;;;;;;5012221;28;20030;-54
2022/09/07 11:31:23;;;;;;;20.92;15.20;;;;;;;;;;5012530;28;20022;-56
2022/09/07 11:34:10;;;;;;;20.60;13.52;;;;;;;;;;5012300;28;20080;-51
2022/09/07 11:36:40;;;;;;;21.20;14.20;;;;;;;;;;5012477;28;20101;-54
2022/09/07 11:39:10;;;;;;;23.38;15.98;;;;;;;;;;5012274;28;20014;-56
2022/09/07 11:41:39;;;;;;;20.35;14.77;;;;;;;;;;5012429;28;20018;-54
2022/09/07 11:44:15;;;;;;;19.20;13.90;;;;;;;;;;5012218;28;20030;-54
2022/09/07 11:46:40;;;;;;;19.25;13.55;;;;;;;;;;5011889;28;20022;-56
2022/09/07 11:49:12;;;;;;;19.25;13.65;;;;;;;;;;5012041;28;20076;-59
2022/09/07 11:51:40;;;;;;;20.10;13.50;;;;;;;;;;5012216;28;20040;-57
2022/09/07 11:54:25;;;;;;;19.50;13.63;;;;;;;;;;5040990;23;20132;-60
2022/09/07 11:56:55;;;;;;;20.27;13.25;;;;;;;;;;5031449;28;20061;-60
2022/09/07 11:59:36;;;;;;;20.42;13.07;;;;;;;;;;5031030;28;20025;-57
2022/09/07 12:02:12;;;;;;;18.30;12.60;;;;;;;;;;5031460;28;20026;-55
2022/09/07 12:05:07;;;;;;;19.77;13.80;;;;;;;;;;5031201;28;20025;-57
2022/09/07 12:07:43;;;;;;;21.27;14.35;;;;;;;;;;5026029;28;20048;-53
2022/09/07 12:10:12;;;;;;;20.38;14.00;;;;;;;;;;5031239;28;20044;-59
2022/09/07 12:12:42;;;;;;;19.73;13.88;;;;;;;;;;5030810;28;20489;-56
2022/09/07 12:15:26;;;;;;;17.98;13.38;;;;;;;;;;5031070;28;20108;-59
2022/09/07 12:17:52;;;;;;;20.20;15.70;;;;;;;;;;5030929;28;20026;-58
2022/09/07 12:20:20;;;;;;;21.52;16.08;;;;;;;;;;5031161;28;20018;-58
2022/09/07 12:22:58;;;;;;;20.98;16.33;;;;;;;;;;5030844;28;20097;-57
2022/09/07 12:25:24;;;;;;;19.27;15.80;;;;;;;;;;5031182;28;20034;-57
2022/09/07 12:27:50;;;;;;;18.73;15.30;;;;;;;;;;5030911;28;20453;-58
2022/09/07 12:30:17;;;;;;;21.23;16.67;;;;;;;;;;5031006;28;20427;-59
2022/09/07 12:32:46;;;;;;;19.77;14.85;;;;;;;;;;5029594;28;20075;-57
2022/09/07 12:35:36;;;;;;;19.05;16.27;;;;;;;;;;5029873;28;20028;-58
2022/09/07 12:38:05;;;;;;;20.13;15.23;;;;;;;;;;5027749;28;20036;-57
2022/09/07 12:40:32;;;;;;;19.88;16.60;;;;;;;;;;5030707;28;20413;-58
2022/09/07 12:43:13;;;;;;;20.63;17.35;;;;;;;;;;5030950;28;20095;-57
2022/09/07 12:45:39;;;;;;;20.70;18.40;;;;;;;;;;5030774;28;20036;-55
2022/09/07 12:48:14;;;;;;;22.65;18.05;;;;;;;;;;5030381;28;20026;-58
2022/09/07 12:50:58;;;;;;;20.23;16.75;;;;;;;;;;5030743;28;20409;-51
2022/09/07 12:53:29;;;;;;;19.50;16.70;;;;;;;;;;5030663;28;20029;-53
2022/09/07 12:56:02;;;;;;;21.20;17.00;;;;;;;;;;5030699;28;20025;-56
2022/09/07 12:58:44;;;;;;;20.38;17.25;;;;;;;;;;5030706;28;20013;-58
2022/09/07 13:01:26;;;;;;;20.05;17.85;;;;;;;;;;5033276;28;20398;-53
2022/09/07 13:03:55;;;;;;;20.65;18.45;;;;;;;;;;5034352;28;20036;-56
2022/09/07 13:06:21;;;;;;;21.15;18.85;;;;;;;;;;5032790;28;20029;-51
2022/09/07 13:08:57;;;;;;;22.27;17.60;;;;;;;;;;5032915;28;20109;-64
2022/09/07 13:11:30;;;;;;;20.35;18.15;;;;;;;;;;5032854;28;20088;-63
2022/09/07 13:13:58;;;;;;;21.20;18.88;;;;;;;;;;5033054;28;20059;-63
2022/09/07 13:16:28;;;;;;;21.95;19.63;;;;;;;;;;5032941;28;20076;-64
2022/09/07 13:18:54;;;;;;;23.48;20.40;;;;;;;;;;5033991;28;20091;-63
2022/09/07 13:21:36;;;;;;;20.80;18.50;;;;;;;;;;5034133;28;20100;-64
2022/09/07 13:24:17;;;;;;;21.05;18.75;;;;;;;;;;5033906;28;20017;-63
2022/09/07 13:27:02;;;;;;;21.65;18.90;;;;;;;;;;5033946;28;20083;-63
2022/09/07 13:29:42;;;;;;;20.23;18.02;;;;;;;;;;5032914;28;20017;-64
2022/09/07 13:32:24;;;;;;;20.42;18.23;;;;;;;;;;5033865;28;20034;-63
2022/09/07 13:34:55;;;;;;;21.15;18.83;;;;;;;;;;5034157;28;20033;-63
2022/09/07 13:37:24;;;;;;;22.40;19.70;;;;;;;;;;5033707;28;20021;-64
2022/09/07 13:39:52;;;;;;;21.13;17.48;;;;;;;;;;5032239;28;20018;-64
2022/09/07 13:42:21;;;;;;;20.65;17.52;;;;;;;;;;5032254;28;20037;-64
2022/09/07 13:45:06;;;;;;;21.73;18.67;;;;;;;;;;5032193;28;20048;-64
2022/09/07 13:47:42;;;;;;;22.20;18.77;;;;;;;;;;5033274;28;20405;-64
2022/09/07 13:50:11;;;;;;;22.25;18.30;;;;;;;;;;5033832;28;20025;-64
2022/09/07 13:52:55;;;;;;;20.98;18.40;;;;;;;;;;5033243;28;20073;-65
2022/09/07 13:55:24;;;;;;;20.13;17.20;;;;;;;;;;5033750;28;20036;-65
2022/09/07 13:57:57;;;;;;;21.02;16.45;;;;;;;;;;5033452;28;20152;-64
2022/09/07 14:00:23;;;;;;;21.23;16.70;;;;;;;;;;5012248;28;20045;-64
2022/09/07 14:02:51;;;;;;;19.77;16.73;;;;;;;;;;5012176;28;20026;-65
2022/09/07 14:05:19;;;;;;;20.37;16.53;;;;;;;;;;5019738;28;20037;-64
2022/09/07 14:07:46;;;;;;;20.13;17.08;;;;;;;;;;5032414;28;20350;-67
2022/09/07 14:10:18;;;;;;;18.83;16.66;;;;;;;;;;4684706;28;10000578;-64
2022/09/07 14:13:05;;;;;;;21.60;18.60;;;;;;;;;;5019066;28;20494;-65
2022/09/07 14:15:38;;;;;;;20.98;17.77;;;;;;;;;;5014091;28;20017;-65
2022/09/07 14:18:19;;;;;;;21.30;17.40;;;;;;;;;;5028418;28;20136;-65
2022/09/07 14:20:46;;;;;;;23.73;19.20;;;;;;;;;;5017799;28;20505;-65
2022/09/07 14:23:26;;;;;;;21.00;18.07;;;;;;;;;;5009777;28;20052;-65
2022/09/07 14:26:13;;;;;;;20.50;18.30;;;;;;;;;;5009845;28;20030;-65
2022/09/07 14:28:40;;;;;;;20.83;17.90;;;;;;;;;;5028316;28;20025;-65
2022/09/07 14:31:10;;;;;;;21.05;18.85;;;;;;;;;;5029723;28;20061;-64
2022/09/07 14:33:36;;;;;;;21.42;18.23;;;;;;;;;;5038592;28;20536;-65